sensor_id;sensor_type;location;lat;lon;timestamp;pressure;altitude;pressure_sealevel;temperature;humidity
79534;BME280;68982;52.160;6.736;2024-03-17T00:00:22;102085.03;;;3.48;100.00
79534;BME280;68982;52.160;6.736;2024-03-17T00:02:47;102091.75;;;3.53;100.00
79534;BME280;68982;52.160;6.736;2024-03-17T00:05:13;102081.28;;;3.50;100.00
79534;BME280;68982;52.160;6.736;2024-03-17T00:07:39;102083.84;;;3.52;100.00
79534;BME280;68982;52.160;6.736;2024-03-17T00:10:05;102087.69;;;3.48;100.00
79534;BME280;68982;52.160;6.736;2024-03-17T00:12:32;102084.91;;;3.49;100.00
79534;BME280;68982;52.160;6.736;2024-03-17T00:14:58;102084.03;;;3.49;100.00
79534;BME280;68982;52.160;6.736;2024-03-17T00:17:23;102086.94;;;3.46;100.00
79534;BME280;68982;52.160;6.736;2024-03-17T00:19:49;102086.09;;;3.45;100.00
79534;BME280;68982;52.160;6.736;2024-03-17T00:22:14;102082.59;;;3.45;100.00
79534;BME280;68982;52.160;6.736;2024-03-17T00:24:43;102081.84;;;3.43;100.00
79534;BME280;68982;52.160;6.736;2024-03-17T00:27:09;102077.34;;;3.43;100.00
79534;BME280;68982;52.160;6.736;2024-03-17T00:29:35;102075.63;;;3.42;100.00
79534;BME280;68982;52.160;6.736;2024-03-17T00:32:00;102069.47;;;3.42;100.00
79534;BME280;68982;52.160;6.736;2024-03-17T00:34:25;102063.53;;;3.38;100.00
79534;BME280;68982;52.160;6.736;2024-03-17T00:36:51;102060.72;;;3.40;100.00
79534;BME280;68982;52.160;6.736;2024-03-17T00:39:17;102061.06;;;3.35;100.00
79534;BME280;68982;52.160;6.736;2024-03-17T00:41:43;102058.28;;;3.37;100.00
79534;BME280;68982;52.160;6.736;2024-03-17T00:44:09;102052.97;;;3.37;100.00
79534;BME280;68982;52.160;6.736;2024-03-17T00:46:34;102051.38;;;3.34;100.00
79534;BME280;68982;52.160;6.736;2024-03-17T00:48:59;102044.56;;;3.30;100.00
79534;BME280;68982;52.160;6.736;2024-03-17T00:51:27;102036.78;;;3.27;100.00
79534;BME280;68982;52.160;6.736;2024-03-17T00:53:52;102038.97;;;3.33;100.00
79534;BME280;68982;52.160;6.736;2024-03-17T00:56:18;102037.06;;;3.35;100.00
79534;BME280;68982;52.160;6.736;2024-03-17T00:58:43;102031.72;;;3.35;100.00
79534;BME280;68982;52.160;6.736;2024-03-17T01:01:10;102028.78;;;3.27;100.00
79534;BME280;68982;52.160;6.736;2024-03-17T01:03:36;102036.78;;;3.27;100.00
79534;BME280;68982;52.160;6.736;2024-03-17T01:06:04;102030.38;;;3.29;100.00
79534;BME280;68982;52.160;6.736;2024-03-17T01:08:30;102022.81;;;3.23;100.00
79534;BME280;68982;52.160;6.736;2024-03-17T01:10:56;102023.56;;;3.25;100.00
79534;BME280;68982;52.160;6.736;2024-03-17T01:13:21;102023.47;;;3.27;100.00
79534;BME280;68982;52.160;6.736;2024-03-17T01:15:51;102024.50;;;3.24;100.00
79534;BME280;68982;52.160;6.736;2024-03-17T01:18:17;102022.59;;;3.26;100.00
79534;BME280;68982;52.160;6.736;2024-03-17T01:20:42;102015.91;;;3.21;100.00
79534;BME280;68982;52.160;6.736;2024-03-17T01:23:07;102015.06;;;3.20;100.00
79534;BME280;68982;52.160;6.736;2024-03-17T01:25:34;102014.31;;;3.18;100.00
79534;BME280;68982;52.160;6.736;2024-03-17T01:28:05;102016.56;;;3.11;100.00
79534;BME280;68982;52.160;6.736;2024-03-17T01:30:31;102014.97;;;3.09;100.00
79534;BME280;68982;52.160;6.736;2024-03-17T01:32:58;102017.31;;;3.14;100.00
79534;BME280;68982;52.160;6.736;2024-03-17T01:35:25;102022.41;;;3.17;100.00
79534;BME280;68982;52.160;6.736;2024-03-17T01:37:50;102023.69;;;3.11;100.00
79534;BME280;68982;52.160;6.736;2024-03-17T01:40:16;102013.03;;;3.11;100.00
79534;BME280;68982;52.160;6.736;2024-03-17T01:42:41;102015.84;;;3.09;100.00
79534;BME280;68982;52.160;6.736;2024-03-17T01:45:28;102005.72;;;3.02;100.00
79534;BME280;68982;52.160;6.736;2024-03-17T01:47:54;102016.03;;;3.06;100.00
79534;BME280;68982;52.160;6.736;2024-03-17T01:50:23;102020.75;;;3.03;100.00
79534;BME280;68982;52.160;6.736;2024-03-17T01:52:54;102015.84;;;2.97;100.00
79534;BME280;68982;52.160;6.736;2024-03-17T01:55:22;102019.16;;;3.00;100.00
79534;BME280;68982;52.160;6.736;2024-03-17T01:57:49;102013.69;;;3.02;100.00
79534;BME280;68982;52.160;6.736;2024-03-17T02:00:15;102012.44;;;2.95;100.00
79534;BME280;68982;52.160;6.736;2024-03-17T02:02:40;102008.19;;;2.92;100.00
79534;BME280;68982;52.160;6.736;2024-03-17T02:05:06;102008.28;;;2.90;100.00
79534;BME280;68982;52.160;6.736;2024-03-17T02:07:32;101999.69;;;2.87;100.00
79534;BME280;68982;52.160;6.736;2024-03-17T02:09:57;102006.81;;;2.86;100.00
79534;BME280;68982;52.160;6.736;2024-03-17T02:12:23;102002.66;;;2.82;100.00
79534;BME280;68982;52.160;6.736;2024-03-17T02:14:49;101998.41;;;2.80;100.00
79534;BME280;68982;52.160;6.736;2024-03-17T02:17:15;101995.00;;;2.78;100.00
79534;BME280;68982;52.160;6.736;2024-03-17T02:19:40;101994.56;;;2.71;100.00
79534;BME280;68982;52.160;6.736;2024-03-17T02:22:14;101995.22;;;2.75;100.00
79534;BME280;68982;52.160;6.736;2024-03-17T02:24:42;101991.81;;;2.73;100.00
79534;BME280;68982;52.160;6.736;2024-03-17T02:27:07;102004.28;;;2.72;100.00
79534;BME280;68982;52.160;6.736;2024-03-17T02:29:32;101994.81;;;2.68;100.00
79534;BME280;68982;52.160;6.736;2024-03-17T02:31:58;101993.84;;;2.69;100.00
79534;BME280;68982;52.160;6.736;2024-03-17T02:34:23;101987.47;;;2.72;100.00
79534;BME280;68982;52.160;6.736;2024-03-17T02:36:48;101984.81;;;2.72;100.00
79534;BME280;68982;52.160;6.736;2024-03-17T02:39:14;101983.81;;;2.73;100.00
79534;BME280;68982;52.160;6.736;2024-03-17T02:41:58;101985.75;;;2.70;100.00
79534;BME280;68982;52.160;6.736;2024-03-17T02:44:24;101983.41;;;2.66;100.00
79534;BME280;68982;52.160;6.736;2024-03-17T02:46:49;101976.25;;;2.66;100.00
79534;BME280;68982;52.160;6.736;2024-03-17T02:49:15;101974.34;;;2.68;100.00
79534;BME280;68982;52.160;6.736;2024-03-17T02:51:43;101982.22;;;2.70;100.00
79534;BME280;68982;52.160;6.736;2024-03-17T02:54:09;101968.19;;;2.68;100.00
79534;BME280;68982;52.160;6.736;2024-03-17T02:56:34;101969.88;;;2.69;100.00
79534;BME280;68982;52.160;6.736;2024-03-17T02:59:00;101975.09;;;2.70;100.00
79534;BME280;68982;52.160;6.736;2024-03-17T03:01:25;101973.50;;;2.68;100.00
79534;BME280;68982;52.160;6.736;2024-03-17T03:03:50;101965.41;;;2.69;100.00
79534;BME280;68982;52.160;6.736;2024-03-17T03:06:16;101965.75;;;2.65;100.00
79534;BME280;68982;52.160;6.736;2024-03-17T03:08:45;101966.50;;;2.67;100.00
79534;BME280;68982;52.160;6.736;2024-03-17T03:11:14;101967.53;;;2.64;100.00
79534;BME280;68982;52.160;6.736;2024-03-17T03:13:40;101975.41;;;2.66;100.00
79534;BME280;68982;52.160;6.736;2024-03-17T03:16:10;101974.81;;;2.62;100.00
79534;BME280;68982;52.160;6.736;2024-03-17T03:18:37;101976.72;;;2.60;100.00
79534;BME280;68982;52.160;6.736;2024-03-17T03:21:03;101979.91;;;2.65;100.00
79534;BME280;68982;52.160;6.736;2024-03-17T03:23:29;101973.94;;;2.62;100.00
79534;BME280;68982;52.160;6.736;2024-03-17T03:25:55;101972.34;;;2.59;100.00
79534;BME280;68982;52.160;6.736;2024-03-17T03:28:22;101977.75;;;2.58;100.00
79534;BME280;68982;52.160;6.736;2024-03-17T03:30:48;101975.09;;;2.58;100.00
79534;BME280;68982;52.160;6.736;2024-03-17T03:33:13;101982.47;;;2.54;100.00
79534;BME280;68982;52.160;6.736;2024-03-17T03:35:38;101976.31;;;2.54;100.00
79534;BME280;68982;52.160;6.736;2024-03-17T03:38:04;101974.69;;;2.51;100.00
79534;BME280;68982;52.160;6.736;2024-03-17T03:40:30;101982.81;;;2.49;100.00
79534;BME280;68982;52.160;6.736;2024-03-17T03:42:56;101979.16;;;2.51;100.00
79534;BME280;68982;52.160;6.736;2024-03-17T03:45:22;101974.81;;;2.49;100.00
79534;BME280;68982;52.160;6.736;2024-03-17T03:47:49;101982.81;;;2.49;100.00
79534;BME280;68982;52.160;6.736;2024-03-17T03:50:15;101976.94;;;2.44;100.00
79534;BME280;68982;52.160;6.736;2024-03-17T03:52:41;101975.00;;;2.46;100.00
79534;BME280;68982;52.160;6.736;2024-03-17T03:55:08;101976.72;;;2.47;100.00
79534;BME280;68982;52.160;6.736;2024-03-17T03:57:36;101950.09;;;2.35;100.00
79534;BME280;68982;52.160;6.736;2024-03-17T04:00:05;101975.66;;;2.50;100.00
79534;BME280;68982;52.160;6.736;2024-03-17T04:02:40;101964.16;;;2.49;100.00
79534;BME280;68982;52.160;6.736;2024-03-17T04:05:05;101962.66;;;2.58;100.00
79534;BME280;68982;52.160;6.736;2024-03-17T04:07:31;101965.31;;;2.58;100.00
79534;BME280;68982;52.160;6.736;2024-03-17T04:09:57;101957.00;;;2.63;100.00
79534;BME280;68982;52.160;6.736;2024-03-17T04:12:24;101976.91;;;2.70;100.00
79534;BME280;68982;52.160;6.736;2024-03-17T04:14:50;101970.50;;;2.73;100.00
79534;BME280;68982;52.160;6.736;2024-03-17T04:17:21;101966.25;;;2.83;100.00
79534;BME280;68982;52.160;6.736;2024-03-17T04:19:50;101967.72;;;2.87;100.00
79534;BME280;68982;52.160;6.736;2024-03-17T04:22:16;101964.72;;;2.92;100.00
79534;BME280;68982;52.160;6.736;2024-03-17T04:24:43;101958.53;;;2.91;100.00
79534;BME280;68982;52.160;6.736;2024-03-17T04:27:08;101947.75;;;2.93;100.00
79534;BME280;68982;52.160;6.736;2024-03-17T04:29:33;101950.44;;;2.93;100.00
79534;BME280;68982;52.160;6.736;2024-03-17T04:32:00;101950.94;;;2.98;100.00
79534;BME280;68982;52.160;6.736;2024-03-17T04:34:26;101952.56;;;3.00;100.00
79534;BME280;68982;52.160;6.736;2024-03-17T04:36:52;101949.16;;;2.98;100.00
79534;BME280;68982;52.160;6.736;2024-03-17T04:39:19;101948.91;;;3.01;100.00
79534;BME280;68982;52.160;6.736;2024-03-17T04:41:45;101949.31;;;3.08;100.00
79534;BME280;68982;52.160;6.736;2024-03-17T04:44:10;101945.81;;;3.07;100.00
79534;BME280;68982;52.160;6.736;2024-03-17T04:46:35;101945.06;;;3.05;100.00
79534;BME280;68982;52.160;6.736;2024-03-17T04:49:01;101943.53;;;3.14;100.00
79534;BME280;68982;52.160;6.736;2024-03-17T04:51:28;101928.63;;;3.11;100.00
79534;BME280;68982;52.160;6.736;2024-03-17T04:53:54;101923.34;;;3.23;100.00
79534;BME280;68982;52.160;6.736;2024-03-17T04:56:19;101925.13;;;3.22;100.00
79534;BME280;68982;52.160;6.736;2024-03-17T04:58:44;101924.09;;;3.25;100.00
79534;BME280;68982;52.160;6.736;2024-03-17T05:01:10;101924.81;;;3.27;100.00
79534;BME280;68982;52.160;6.736;2024-03-17T05:03:35;101925.66;;;3.27;100.00
79534;BME280;68982;52.160;6.736;2024-03-17T05:06:02;101911.25;;;3.30;100.00
79534;BME280;68982;52.160;6.736;2024-03-17T05:08:29;101916.34;;;3.33;100.00
79534;BME280;68982;52.160;6.736;2024-03-17T05:11:05;101917.44;;;3.30;100.00
79534;BME280;68982;52.160;6.736;2024-03-17T05:13:32;101915.13;;;3.26;100.00
79534;BME280;68982;52.160;6.736;2024-03-17T05:15:59;101922.88;;;3.29;100.00
79534;BME280;68982;52.160;6.736;2024-03-17T05:18:24;101912.00;;;3.32;100.00
79534;BME280;68982;52.160;6.736;2024-03-17T05:21:01;101910.06;;;3.34;100.00
79534;BME280;68982;52.160;6.736;2024-03-17T05:23:28;101912.50;;;3.37;100.00
79534;BME280;68982;52.160;6.736;2024-03-17T05:25:54;101913.22;;;3.39;100.00
79534;BME280;68982;52.160;6.736;2024-03-17T05:28:20;101914.81;;;3.42;100.00
79534;BME280;68982;52.160;6.736;2024-03-17T05:30:46;101905.22;;;3.39;100.00
79534;BME280;68982;52.160;6.736;2024-03-17T05:33:11;101903.19;;;3.43;100.00
79534;BME280;68982;52.160;6.736;2024-03-17T05:35:36;101894.00;;;3.47;100.00
79534;BME280;68982;52.160;6.736;2024-03-17T05:38:02;101904.16;;;3.42;100.00
79534;BME280;68982;52.160;6.736;2024-03-17T05:40:27;101901.38;;;3.43;100.00
79534;BME280;68982;52.160;6.736;2024-03-17T05:42:52;101896.03;;;3.43;100.00
79534;BME280;68982;52.160;6.736;2024-03-17T05:45:18;101903.78;;;3.46;100.00
79534;BME280;68982;52.160;6.736;2024-03-17T05:47:43;101897.00;;;3.42;100.00
79534;BME280;68982;52.160;6.736;2024-03-17T05:50:12;101895.19;;;3.43;100.00
79534;BME280;68982;52.160;6.736;2024-03-17T05:52:37;101904.16;;;3.42;100.00
79534;BME280;68982;52.160;6.736;2024-03-17T05:55:03;101912.28;;;3.40;100.00
79534;BME280;68982;52.160;6.736;2024-03-17T05:57:28;101918.00;;;3.47;100.00
79534;BME280;68982;52.160;6.736;2024-03-17T05:59:54;101913.97;;;3.41;100.00
79534;BME280;68982;52.160;6.736;2024-03-17T06:02:20;101909.47;;;3.42;100.00
79534;BME280;68982;52.160;6.736;2024-03-17T06:04:46;101908.75;;;3.40;100.00
79534;BME280;68982;52.160;6.736;2024-03-17T06:07:11;101907.16;;;3.37;100.00
79534;BME280;68982;52.160;6.736;2024-03-17T06:09:36;101907.56;;;3.44;100.00
79534;BME280;68982;52.160;6.736;2024-03-17T06:12:02;101904.53;;;3.48;100.00
79534;BME280;68982;52.160;6.736;2024-03-17T06:14:27;101910.50;;;3.52;100.00
79534;BME280;68982;52.160;6.736;2024-03-17T06:16:52;101911.09;;;3.56;100.00
79534;BME280;68982;52.160;6.736;2024-03-17T06:19:18;101897.06;;;3.53;100.00
79534;BME280;68982;52.160;6.736;2024-03-17T06:21:46;101898.63;;;3.56;100.00
79534;BME280;68982;52.160;6.736;2024-03-17T06:24:11;101909.69;;;3.63;100.00
79534;BME280;68982;52.160;6.736;2024-03-17T06:26:36;101907.03;;;3.63;100.00
79534;BME280;68982;52.160;6.736;2024-03-17T06:29:02;101901.19;;;3.69;100.00
79534;BME280;68982;52.160;6.736;2024-03-17T06:31:27;101903.75;;;3.70;100.00
79534;BME280;68982;52.160;6.736;2024-03-17T06:33:52;101903.41;;;3.75;100.00
79534;BME280;68982;52.160;6.736;2024-03-17T06:36:18;101900.25;;;3.81;100.00
79534;BME280;68982;52.160;6.736;2024-03-17T06:38:43;101906.59;;;3.91;100.00
79534;BME280;68982;52.160;6.736;2024-03-17T06:41:12;101901.84;;;3.95;100.00
79534;BME280;68982;52.160;6.736;2024-03-17T06:43:40;101886.47;;;3.99;100.00
79534;BME280;68982;52.160;6.736;2024-03-17T06:46:07;101901.13;;;4.04;100.00
79534;BME280;68982;52.160;6.736;2024-03-17T06:48:33;101904.31;;;4.09;100.00
79534;BME280;68982;52.160;6.736;2024-03-17T06:50:58;101907.56;;;4.13;100.00
79534;BME280;68982;52.160;6.736;2024-03-17T06:53:24;101911.72;;;4.17;100.00
79534;BME280;68982;52.160;6.736;2024-03-17T06:55:58;101923.00;;;4.21;100.00
79534;BME280;68982;52.160;6.736;2024-03-17T06:58:26;101917.78;;;4.30;100.00
79534;BME280;68982;52.160;6.736;2024-03-17T07:01:00;101916.47;;;4.36;100.00
79534;BME280;68982;52.160;6.736;2024-03-17T07:03:27;101916.09;;;4.41;100.00
79534;BME280;68982;52.160;6.736;2024-03-17T07:05:54;101917.91;;;4.51;100.00
79534;BME280;68982;52.160;6.736;2024-03-17T07:08:20;101910.84;;;4.62;100.00
79534;BME280;68982;52.160;6.736;2024-03-17T07:11:18;101909.13;;;4.83;100.00
79534;BME280;68982;52.160;6.736;2024-03-17T07:13:43;101915.97;;;5.08;100.00
79534;BME280;68982;52.160;6.736;2024-03-17T07:16:09;101909.25;;;5.25;100.00
79534;BME280;68982;52.160;6.736;2024-03-17T07:18:36;101900.66;;;5.43;100.00
79534;BME280;68982;52.160;6.736;2024-03-17T07:21:03;101913.72;;;5.57;100.00
79534;BME280;68982;52.160;6.736;2024-03-17T07:23:31;101904.50;;;5.71;100.00
79534;BME280;68982;52.160;6.736;2024-03-17T07:25:59;101910.59;;;5.94;100.00
79534;BME280;68982;52.160;6.736;2024-03-17T07:28:25;101903.25;;;6.07;100.00
79534;BME280;68982;52.160;6.736;2024-03-17T07:30:52;101898.09;;;6.25;100.00
79534;BME280;68982;52.160;6.736;2024-03-17T07:33:19;101905.19;;;6.36;100.00
79534;BME280;68982;52.160;6.736;2024-03-17T07:35:51;101909.78;;;6.55;100.00
79534;BME280;68982;52.160;6.736;2024-03-17T07:38:17;101914.75;;;6.69;100.00
79534;BME280;68982;52.160;6.736;2024-03-17T07:40:43;101917.41;;;6.69;100.00
79534;BME280;68982;52.160;6.736;2024-03-17T07:43:09;101911.09;;;6.70;100.00
79534;BME280;68982;52.160;6.736;2024-03-17T07:45:34;101908.44;;;6.80;100.00
79534;BME280;68982;52.160;6.736;2024-03-17T07:48:00;101908.88;;;6.85;100.00
79534;BME280;68982;52.160;6.736;2024-03-17T07:50:26;101918.78;;;6.94;100.00
79534;BME280;68982;52.160;6.736;2024-03-17T07:52:51;101917.66;;;6.97;100.00
79534;BME280;68982;52.160;6.736;2024-03-17T07:55:16;101910.84;;;6.93;100.00
79534;BME280;68982;52.160;6.736;2024-03-17T07:57:41;101902.81;;;7.02;100.00
79534;BME280;68982;52.160;6.736;2024-03-17T08:00:07;101899.47;;;7.00;100.00
79534;BME280;68982;52.160;6.736;2024-03-17T08:02:47;101916.84;;;7.35;100.00
79534;BME280;68982;52.160;6.736;2024-03-17T08:05:13;101917.94;;;7.81;100.00
79534;BME280;68982;52.160;6.736;2024-03-17T08:07:39;101916.19;;;8.00;100.00
79534;BME280;68982;52.160;6.736;2024-03-17T08:10:07;101925.41;;;8.44;100.00
79534;BME280;68982;52.160;6.736;2024-03-17T08:12:32;101919.84;;;8.83;100.00
79534;BME280;68982;52.160;6.736;2024-03-17T08:14:58;101926.63;;;8.60;100.00
79534;BME280;68982;52.160;6.736;2024-03-17T08:17:25;101935.91;;;8.28;100.00
79534;BME280;68982;52.160;6.736;2024-03-17T08:19:50;101937.94;;;8.16;100.00
79534;BME280;68982;52.160;6.736;2024-03-17T08:22:15;101932.94;;;8.41;100.00
79534;BME280;68982;52.160;6.736;2024-03-17T08:24:41;101930.41;;;8.29;100.00
79534;BME280;68982;52.160;6.736;2024-03-17T08:27:06;101935.78;;;8.29;100.00
79534;BME280;68982;52.160;6.736;2024-03-17T08:29:32;101927.03;;;8.27;100.00
79534;BME280;68982;52.160;6.736;2024-03-17T08:31:58;101920.47;;;8.49;100.00
79534;BME280;68982;52.160;6.736;2024-03-17T08:34:24;101921.25;;;8.60;100.00
79534;BME280;68982;52.160;6.736;2024-03-17T08:36:49;101923.13;;;8.77;100.00
79534;BME280;68982;52.160;6.736;2024-03-17T08:39:15;101922.34;;;8.67;100.00
79534;BME280;68982;52.160;6.736;2024-03-17T08:41:40;101927.88;;;8.65;100.00
79534;BME280;68982;52.160;6.736;2024-03-17T08:44:05;101925.72;;;8.69;100.00
79534;BME280;68982;52.160;6.736;2024-03-17T08:46:31;101927.03;;;8.65;100.00
79534;BME280;68982;52.160;6.736;2024-03-17T08:48:57;101923.78;;;8.61;100.00
79534;BME280;68982;52.160;6.736;2024-03-17T08:51:23;101918.66;;;9.13;100.00
79534;BME280;68982;52.160;6.736;2024-03-17T08:53:49;101920.38;;;9.94;100.00
79534;BME280;68982;52.160;6.736;2024-03-17T08:56:14;101918.97;;;10.34;100.00
79534;BME280;68982;52.160;6.736;2024-03-17T08:58:40;101919.81;;;10.77;100.00
79534;BME280;68982;52.160;6.736;2024-03-17T09:01:08;101908.78;;;11.22;100.00
79534;BME280;68982;52.160;6.736;2024-03-17T09:03:36;101908.97;;;11.45;97.67
79534;BME280;68982;52.160;6.736;2024-03-17T09:06:01;101904.25;;;12.12;94.67
79534;BME280;68982;52.160;6.736;2024-03-17T09:08:27;101908.28;;;12.64;91.27
79534;BME280;68982;52.160;6.736;2024-03-17T09:10:54;101908.97;;;12.18;92.80
79534;BME280;68982;52.160;6.736;2024-03-17T09:13:23;101907.72;;;12.29;91.10
79534;BME280;68982;52.160;6.736;2024-03-17T09:15:54;101901.75;;;11.70;93.45
79534;BME280;68982;52.160;6.736;2024-03-17T09:18:20;101902.56;;;11.78;94.39
79534;BME280;68982;52.160;6.736;2024-03-17T09:20:46;101912.00;;;12.07;92.48
79534;BME280;68982;52.160;6.736;2024-03-17T09:23:14;101911.88;;;12.56;89.97
79534;BME280;68982;52.160;6.736;2024-03-17T09:25:39;101920.41;;;12.37;90.81
79534;BME280;68982;52.160;6.736;2024-03-17T09:28:04;101900.38;;;11.98;91.94
79534;BME280;68982;52.160;6.736;2024-03-17T09:30:30;101903.06;;;11.57;94.38
79534;BME280;68982;52.160;6.736;2024-03-17T09:32:55;101907.25;;;12.17;92.93
79534;BME280;68982;52.160;6.736;2024-03-17T09:35:21;101908.13;;;12.10;91.44
79534;BME280;68982;52.160;6.736;2024-03-17T09:37:46;101904.28;;;11.88;92.24
79534;BME280;68982;52.160;6.736;2024-03-17T09:40:14;101903.34;;;12.36;90.24
79534;BME280;68982;52.160;6.736;2024-03-17T09:42:41;101908.53;;;12.38;90.34
79534;BME280;68982;52.160;6.736;2024-03-17T09:45:06;101902.69;;;12.18;90.08
79534;BME280;68982;52.160;6.736;2024-03-17T09:47:33;101901.88;;;12.65;87.49
79534;BME280;68982;52.160;6.736;2024-03-17T09:49:59;101893.63;;;12.50;87.22
79534;BME280;68982;52.160;6.736;2024-03-17T09:52:25;101884.59;;;12.66;87.36
79534;BME280;68982;52.160;6.736;2024-03-17T09:55:01;101891.22;;;12.95;86.59
79534;BME280;68982;52.160;6.736;2024-03-17T09:57:27;101886.53;;;13.43;84.76
79534;BME280;68982;52.160;6.736;2024-03-17T09:59:54;101881.63;;;13.61;82.19
79534;BME280;68982;52.160;6.736;2024-03-17T10:02:20;101880.44;;;14.38;79.95
79534;BME280;68982;52.160;6.736;2024-03-17T10:04:46;101875.03;;;14.38;81.02
79534;BME280;68982;52.160;6.736;2024-03-17T10:07:12;101876.66;;;14.99;78.28
79534;BME280;68982;52.160;6.736;2024-03-17T10:09:39;101878.66;;;14.75;78.86
79534;BME280;68982;52.160;6.736;2024-03-17T10:12:23;101875.47;;;15.08;80.41
79534;BME280;68982;52.160;6.736;2024-03-17T10:14:58;101884.94;;;14.31;78.52
79534;BME280;68982;52.160;6.736;2024-03-17T10:17:29;101881.16;;;13.73;81.30
79534;BME280;68982;52.160;6.736;2024-03-17T10:20:19;101878.59;;;13.10;82.87
79534;BME280;68982;52.160;6.736;2024-03-17T10:23:07;101882.75;;;13.21;83.42
79534;BME280;68982;52.160;6.736;2024-03-17T10:25:38;101873.22;;;13.25;82.87
79534;BME280;68982;52.160;6.736;2024-03-17T10:28:10;101872.22;;;13.26;79.79
79534;BME280;68982;52.160;6.736;2024-03-17T10:30:36;101878.41;;;12.80;82.96
79534;BME280;68982;52.160;6.736;2024-03-17T10:33:02;101868.59;;;12.88;82.33
79534;BME280;68982;52.160;6.736;2024-03-17T10:35:33;101876.50;;;12.89;82.54
79534;BME280;68982;52.160;6.736;2024-03-17T10:38:02;101871.06;;;12.66;78.81
79534;BME280;68982;52.160;6.736;2024-03-17T10:40:30;101870.44;;;12.56;81.97
79534;BME280;68982;52.160;6.736;2024-03-17T10:42:57;101875.31;;;12.60;80.83
79534;BME280;68982;52.160;6.736;2024-03-17T10:45:25;101878.25;;;12.42;80.88
79534;BME280;68982;52.160;6.736;2024-03-17T10:47:51;101870.97;;;12.51;82.56
79534;BME280;68982;52.160;6.736;2024-03-17T10:50:21;101881.75;;;12.59;82.23
79534;BME280;68982;52.160;6.736;2024-03-17T10:52:49;101884.09;;;12.23;80.37
79534;BME280;68982;52.160;6.736;2024-03-17T10:55:25;101882.25;;;12.07;82.96
79534;BME280;68982;52.160;6.736;2024-03-17T10:57:54;101879.22;;;12.10;82.44
79534;BME280;68982;52.160;6.736;2024-03-17T11:00:24;101874.19;;;11.99;85.06
79534;BME280;68982;52.160;6.736;2024-03-17T11:02:51;101880.94;;;11.95;85.96
79534;BME280;68982;52.160;6.736;2024-03-17T11:05:23;101882.16;;;11.92;84.52
79534;BME280;68982;52.160;6.736;2024-03-17T11:07:52;101881.97;;;11.69;83.51
79534;BME280;68982;52.160;6.736;2024-03-17T11:12:47;101879.28;;;11.61;84.41
79534;BME280;68982;52.160;6.736;2024-03-17T11:17:44;101864.56;;;11.23;86.11
79534;BME280;68982;52.160;6.736;2024-03-17T11:20:17;101876.06;;;11.33;85.45
79534;BME280;68982;52.160;6.736;2024-03-17T11:22:49;101870.00;;;11.31;85.46
79534;BME280;68982;52.160;6.736;2024-03-17T11:27:58;101859.84;;;11.08;84.53
79534;BME280;68982;52.160;6.736;2024-03-17T11:39:07;101850.25;;;11.30;87.48
79534;BME280;68982;52.160;6.736;2024-03-17T11:41:43;101846.69;;;11.22;86.65
79534;BME280;68982;52.160;6.736;2024-03-17T11:46:54;101850.25;;;11.22;88.29
79534;BME280;68982;52.160;6.736;2024-03-17T11:49:39;101849.06;;;11.16;88.03
79534;BME280;68982;52.160;6.736;2024-03-17T11:52:08;101853.13;;;11.20;86.88
79534;BME280;68982;52.160;6.736;2024-03-17T11:54:35;101846.53;;;11.31;87.40
79534;BME280;68982;52.160;6.736;2024-03-17T11:57:03;101848.56;;;11.21;86.63
79534;BME280;68982;52.160;6.736;2024-03-17T11:59:29;101839.63;;;11.29;86.10
79534;BME280;68982;52.160;6.736;2024-03-17T12:01:55;101836.75;;;11.30;87.73
79534;BME280;68982;52.160;6.736;2024-03-17T12:04:22;101841.28;;;11.38;88.98
79534;BME280;68982;52.160;6.736;2024-03-17T12:06:58;101834.22;;;11.45;88.69
79534;BME280;68982;52.160;6.736;2024-03-17T12:09:28;101828.81;;;11.37;89.38
79534;BME280;68982;52.160;6.736;2024-03-17T12:12:10;101831.69;;;11.44;90.42
79534;BME280;68982;52.160;6.736;2024-03-17T12:14:37;101825.59;;;11.33;89.15
79534;BME280;68982;52.160;6.736;2024-03-17T12:17:04;101817.00;;;11.38;90.77
79534;BME280;68982;52.160;6.736;2024-03-17T12:19:30;101804.34;;;11.38;89.40
79534;BME280;68982;52.160;6.736;2024-03-17T12:22:00;101817.50;;;11.50;90.64
79534;BME280;68982;52.160;6.736;2024-03-17T12:24:35;101831.00;;;11.50;92.48
79534;BME280;68982;52.160;6.736;2024-03-17T12:27:04;101816.47;;;11.67;93.78
79534;BME280;68982;52.160;6.736;2024-03-17T12:29:37;101810.03;;;11.76;93.15
79534;BME280;68982;52.160;6.736;2024-03-17T12:32:25;101813.38;;;11.87;92.64
79534;BME280;68982;52.160;6.736;2024-03-17T12:34:54;101814.06;;;11.97;94.42
79534;BME280;68982;52.160;6.736;2024-03-17T12:37:22;101806.63;;;11.99;92.49
79534;BME280;68982;52.160;6.736;2024-03-17T12:39:48;101806.09;;;11.87;92.86
79534;BME280;68982;52.160;6.736;2024-03-17T12:42:15;101802.75;;;11.77;93.54
79534;BME280;68982;52.160;6.736;2024-03-17T12:45:02;101800.88;;;11.86;92.39
79534;BME280;68982;52.160;6.736;2024-03-17T12:47:30;101802.75;;;11.85;92.79
79534;BME280;68982;52.160;6.736;2024-03-17T12:49:59;101801.56;;;11.79;92.71
79534;BME280;68982;52.160;6.736;2024-03-17T12:52:25;101791.94;;;11.85;95.43
79534;BME280;68982;52.160;6.736;2024-03-17T12:55:01;101790.59;;;11.89;92.29
79534;BME280;68982;52.160;6.736;2024-03-17T12:57:46;101786.84;;;11.98;94.36
79534;BME280;68982;52.160;6.736;2024-03-17T13:00:30;101776.81;;;12.15;92.32
79534;BME280;68982;52.160;6.736;2024-03-17T13:03:05;101775.59;;;12.18;90.51
79534;BME280;68982;52.160;6.736;2024-03-17T13:05:32;101747.75;;;12.09;89.08
79534;BME280;68982;52.160;6.736;2024-03-17T13:07:58;101754.09;;;12.24;91.81
79534;BME280;68982;52.160;6.736;2024-03-17T13:10:25;101751.94;;;12.20;90.13